Time;durP1;ratioP1;P1;durP2;ratioP2;P2;SDS_P1;SDS_P2;PMS_P1;PMS_P2;Temp;Humidity;BMP_temperature;BMP_pressure;BME280_temperature;BME280_humidity;BME280_pressure;Samples;Min_cycle;Max_cycle;Signal;HPM_P1;HPM_P2
2024/03/29 00:01:47;;;;;;;0.93;0.93;;;;;;;6.24;75.47;96644.22;5001180;28;20136;-40
2024/03/29 00:04:13;;;;;;;1.27;1.13;;;;;;;6.21;76.19;96650.34;5014485;28;20099;-39
2024/03/29 00:06:39;;;;;;;0.90;0.80;;;;;;;6.22;77.18;96661.47;5016545;28;20041;-40
2024/03/29 00:09:05;;;;;;;0.93;0.77;;;;;;;6.14;76.86;96667.72;5013474;28;20037;-39
2024/03/29 00:11:31;;;;;;;2.75;0.98;;;;;;;6.15;76.50;96669.41;5016914;28;20057;-40
2024/03/29 00:13:57;;;;;;;2.75;0.63;;;;;;;6.17;76.57;96670.19;5012063;28;20057;-39
2024/03/29 00:16:25;;;;;;;1.73;0.63;;;;;;;6.13;75.52;96672.94;5001992;28;20053;-40
2024/03/29 00:18:52;;;;;;;0.70;0.47;;;;;;;6.07;76.66;96681.72;5017937;28;20049;-40
2024/03/29 00:21:18;;;;;;;0.85;0.85;;;;;;;6.04;76.68;96684.41;5015187;28;20049;-39
2024/03/29 00:23:45;;;;;;;1.17;1.05;;;;;;;6.02;76.86;96696.44;5015175;28;20046;-39
2024/03/29 00:26:11;;;;;;;2.47;1.00;;;;;;;6.00;76.17;96708.50;5011050;28;20525;-40
2024/03/29 00:28:37;;;;;;;1.02;0.73;;;;;;;5.99;75.85;96709.41;5005074;28;20050;-40
2024/03/29 00:31:03;;;;;;;1.75;0.68;;;;;;;6.02;76.20;96724.72;5011896;28;20057;-40
2024/03/29 00:33:30;;;;;;;0.65;0.47;;;;;;;5.91;77.40;96715.66;5008812;28;20613;-39
2024/03/29 00:35:56;;;;;;;3.67;0.52;;;;;;;5.86;77.93;96727.84;5009824;28;20061;-40
2024/03/29 00:38:22;;;;;;;2.08;0.75;;;;;;;5.87;78.22;96729.50;5018631;28;20080;-40
2024/03/29 00:40:47;;;;;;;0.82;0.35;;;;;;;5.83;77.78;96725.38;5005472;28;20462;-39
2024/03/29 00:43:13;;;;;;;1.67;0.85;;;;;;;5.82;78.63;96731.44;5006280;28;20090;-40
2024/03/29 00:45:40;;;;;;;3.90;1.15;;;;;;;5.80;78.95;96733.19;5015328;28;20156;-40
2024/03/29 00:48:06;;;;;;;0.70;0.52;;;;;;;5.88;77.93;96736.31;5013486;28;20061;-41
2024/03/29 00:50:32;;;;;;;1.60;0.65;;;;;;;5.85;78.55;96735.63;5006254;28;20054;-40
2024/03/29 00:52:58;;;;;;;0.90;0.88;;;;;;;5.83;79.19;96737.38;5017661;28;20529;-40
2024/03/29 00:55:24;;;;;;;1.35;1.08;;;;;;;5.91;78.53;96745.63;5000773;28;20084;-39
2024/03/29 00:57:49;;;;;;;1.30;0.60;;;;;;;5.91;77.54;96741.34;4993469;28;20056;-40
2024/03/29 01:00:15;;;;;;;3.92;0.80;;;;;;;5.88;77.65;96741.47;5012028;28;20519;-40
2024/03/29 01:02:41;;;;;;;2.03;1.08;;;;;;;5.80;77.13;96748.63;5022018;28;20061;-40
2024/03/29 01:05:07;;;;;;;1.63;1.45;;;;;;;5.84;78.26;96750.16;5012227;28;20049;-40
2024/03/29 01:07:34;;;;;;;8.50;0.90;;;;;;;5.81;78.14;96750.28;5011891;28;20772;-40
2024/03/29 01:10:00;;;;;;;1.88;1.05;;;;;;;5.74;79.25;96754.81;5014654;28;20465;-41
2024/03/29 01:12:26;;;;;;;8.25;1.30;;;;;;;5.76;79.32;96754.75;5013440;28;20092;-40
2024/03/29 01:14:51;;;;;;;3.55;0.57;;;;;;;5.78;78.22;96755.56;5014894;28;20088;-40
2024/03/29 01:17:18;;;;;;;0.95;0.82;;;;;;;5.76;78.23;96765.88;5012623;28;20057;-40
2024/03/29 01:19:43;;;;;;;0.75;0.55;;;;;;;5.75;78.72;96776.19;5011316;28;20081;-41
2024/03/29 01:22:09;;;;;;;2.65;0.77;;;;;;;5.73;78.10;96767.69;5014800;28;20507;-40
2024/03/29 01:24:35;;;;;;;2.58;0.68;;;;;;;5.74;79.06;96784.81;4997305;28;20050;-40
2024/03/29 01:27:01;;;;;;;1.10;0.60;;;;;;;5.66;79.80;96783.34;5014537;28;20048;-39
2024/03/29 01:29:27;;;;;;;5.63;0.50;;;;;;;5.72;79.47;96784.00;5010777;28;20568;-39
2024/03/29 01:31:53;;;;;;;1.90;0.77;;;;;;;5.73;78.67;96789.09;4998189;28;20054;-40
2024/03/29 01:34:18;;;;;;;1.50;0.77;;;;;;;5.72;79.46;96791.72;5003928;28;20041;-39
2024/03/29 01:36:44;;;;;;;2.13;1.13;;;;;;;5.74;78.42;96779.66;5013469;28;20049;-40
2024/03/29 01:39:14;;;;;;;2.25;0.75;;;;;;;5.73;79.45;96783.97;5016884;28;20041;-40
2024/03/29 01:41:39;;;;;;;1.92;1.50;;;;;;;5.71;79.02;96787.47;5019785;28;20494;-40
2024/03/29 01:44:05;;;;;;;2.70;1.98;;;;;;;5.68;78.71;96779.88;5008656;28;20046;-39
2024/03/29 01:46:36;;;;;;;3.75;0.65;;;;;;;5.65;79.44;96779.09;5016739;28;20049;-39
2024/03/29 01:49:03;;;;;;;3.90;0.75;;;;;;;5.70;79.52;96770.38;5014230;28;20056;-38
2024/03/29 01:51:28;;;;;;;1.48;0.57;;;;;;;5.66;78.67;96774.78;5003793;28;20056;-40
2024/03/29 01:53:55;;;;;;;1.45;0.73;;;;;;;5.68;78.99;96788.44;5014685;28;20466;-40
2024/03/29 01:56:22;;;;;;;2.78;0.80;;;;;;;5.69;78.05;96784.13;5020343;28;20410;-40
2024/03/29 01:58:51;;;;;;;1.75;0.90;;;;;;;5.69;79.43;96786.69;5023482;28;20046;-40
2024/03/29 02:01:16;;;;;;;2.10;1.02;;;;;;;5.64;78.31;96790.25;5019198;28;20053;-41
2024/03/29 02:03:42;;;;;;;0.73;0.35;;;;;;;5.61;78.79;96792.91;5016847;28;20476;-40
2024/03/29 02:06:10;;;;;;;1.85;1.00;;;;;;;5.63;79.95;96793.72;5017420;28;20125;-40
2024/03/29 02:08:36;;;;;;;1.05;0.47;;;;;;;5.63;79.44;96798.84;5019496;28;20522;-40
2024/03/29 02:11:03;;;;;;;1.27;0.63;;;;;;;5.62;79.71;96807.47;5012683;28;20568;-39
2024/03/29 02:13:29;;;;;;;1.40;1.30;;;;;;;5.59;78.40;96804.16;5022335;28;20054;-39
2024/03/29 02:15:55;;;;;;;0.85;0.65;;;;;;;5.60;78.35;96808.38;5006267;28;20136;-39
2024/03/29 02:18:20;;;;;;;0.90;0.65;;;;;;;5.51;78.16;96800.09;5016470;28;20641;-40
2024/03/29 02:20:47;;;;;;;1.95;0.85;;;;;;;5.46;79.11;96801.16;5042990;28;20057;-40
2024/03/29 02:23:19;;;;;;;2.08;1.60;;;;;;;5.48;78.21;96804.53;5010347;28;20557;-40
2024/03/29 02:25:45;;;;;;;1.15;0.82;;;;;;;5.44;79.28;96800.38;5010319;28;20050;-39
2024/03/29 02:28:12;;;;;;;2.35;0.47;;;;;;;5.42;78.68;96800.44;5015068;28;20391;-40
2024/03/29 02:30:38;;;;;;;0.60;0.55;;;;;;;5.37;79.18;96808.28;5021313;28;20515;-39
2024/03/29 02:33:04;;;;;;;1.13;0.77;;;;;;;5.34;79.27;96794.72;5004466;28;20076;-38
2024/03/29 02:35:30;;;;;;;0.93;0.93;;;;;;;5.36;78.10;96798.06;5013872;28;20457;-39
2024/03/29 02:37:56;;;;;;;2.25;0.90;;;;;;;5.36;78.60;96791.22;5017024;28;20411;-38
2024/03/29 02:40:22;;;;;;;1.00;0.90;;;;;;;5.31;79.09;96803.38;5012564;28;20053;-39
2024/03/29 02:42:49;;;;;;;2.00;0.95;;;;;;;5.32;79.12;96799.91;4995275;28;20046;-39
2024/03/29 02:45:15;;;;;;;2.65;1.48;;;;;;;5.30;77.92;96799.13;4988856;28;20506;-39
2024/03/29 02:47:41;;;;;;;4.60;0.43;;;;;;;5.27;78.83;96801.81;5012012;28;20108;-39
2024/03/29 02:50:09;;;;;;;5.10;1.17;;;;;;;5.24;78.77;96802.72;5019498;28;20490;-39
2024/03/29 02:52:35;;;;;;;1.13;1.02;;;;;;;5.22;78.37;96798.53;5008549;28;20057;-39
2024/03/29 02:55:01;;;;;;;1.08;1.05;;;;;;;5.19;78.13;96804.63;5014732;28;20488;-40
2024/03/29 02:57:26;;;;;;;2.40;1.02;;;;;;;5.16;78.67;96809.03;5015712;28;20084;-39
2024/03/29 02:59:52;;;;;;;0.90;0.57;;;;;;;5.13;78.83;96809.94;5021016;28;20532;-38
2024/03/29 03:02:17;;;;;;;2.78;0.85;;;;;;;5.10;78.81;96816.00;5013682;28;20062;-40
2024/03/29 03:04:43;;;;;;;1.48;0.32;;;;;;;5.08;78.77;96820.38;5015142;28;20057;-40
2024/03/29 03:12:40;;;;;;;2.55;0.98;;;;;;;4.98;78.71;96831.81;5007392;28;20053;-41
2024/03/29 03:15:06;;;;;;;2.95;0.50;;;;;;;4.95;78.78;96837.88;4998240;28;20411;-40
2024/03/29 03:17:32;;;;;;;1.58;0.63;;;;;;;4.95;79.10;96842.16;5010848;28;20065;-39
2024/03/29 03:19:58;;;;;;;1.75;0.77;;;;;;;4.94;79.33;96850.75;5018657;28;20136;-39
2024/03/29 03:22:24;;;;;;;0.85;0.75;;;;;;;4.94;79.69;96841.34;5016833;28;20089;-39
2024/03/29 03:24:50;;;;;;;1.27;1.08;;;;;;;4.97;78.71;96845.53;5012766;28;20054;-38
2024/03/29 03:27:15;;;;;;;0.80;0.77;;;;;;;4.97;79.56;96841.22;5015707;28;20084;-39
2024/03/29 03:29:41;;;;;;;0.95;0.73;;;;;;;4.95;79.62;96837.03;5010109;28;20160;-39
2024/03/29 03:32:07;;;;;;;1.55;0.63;;;;;;;4.98;79.52;96847.19;5004982;28;20060;-39
2024/03/29 03:34:33;;;;;;;3.00;1.30;;;;;;;4.96;79.36;96844.69;5006710;28;20053;-40
2024/03/29 03:36:59;;;;;;;2.17;0.95;;;;;;;4.96;79.17;96843.84;5005789;28;20041;-39
2024/03/29 03:39:25;;;;;;;3.00;1.15;;;;;;;4.94;79.46;96848.19;5012619;28;20126;-39
2024/03/29 03:41:51;;;;;;;3.50;1.05;;;;;;;4.94;80.20;96850.75;5012935;28;20475;-40
2024/03/29 03:44:16;;;;;;;1.08;0.80;;;;;;;4.98;79.54;96834.38;5021345;28;20065;-39
2024/03/29 03:46:42;;;;;;;1.08;0.80;;;;;;;5.00;79.97;96846.25;5015621;28;20770;-40
2024/03/29 03:49:08;;;;;;;0.95;0.30;;;;;;;4.97;80.13;96841.22;5010833;28;20096;-39
2024/03/29 03:51:33;;;;;;;0.77;0.70;;;;;;;4.99;79.24;96833.47;5013244;28;20052;-39
2024/03/29 03:53:59;;;;;;;1.58;1.02;;;;;;;5.00;79.50;96830.88;5009612;28;20045;-40
2024/03/29 03:56:25;;;;;;;0.50;0.30;;;;;;;4.99;80.37;96839.47;5013445;28;20057;-39
2024/03/29 03:58:50;;;;;;;0.85;0.52;;;;;;;5.00;80.65;96840.31;5017027;28;20049;-40
2024/03/29 04:01:16;;;;;;;1.75;1.05;;;;;;;5.00;80.66;96845.44;5006018;28;20077;-40
2024/03/29 04:03:42;;;;;;;1.35;0.63;;;;;;;5.04;80.30;96843.59;5018124;28;20050;-39
2024/03/29 04:06:07;;;;;;;0.68;0.60;;;;;;;5.03;81.47;96850.44;5008787;28;20045;-39
2024/03/29 04:08:33;;;;;;;2.85;0.80;;;;;;;5.09;80.72;96849.41;5014481;28;20049;-38
2024/03/29 04:11:06;;;;;;;2.17;2.08;;;;;;;5.06;81.59;96860.63;5008588;28;20048;-40
2024/03/29 04:13:32;;;;;;;1.38;0.63;;;;;;;5.09;81.66;96860.53;5012494;28;20050;-39
2024/03/29 04:16:03;;;;;;;1.15;0.68;;;;;;;5.13;80.74;96866.38;5011538;28;20168;-40
2024/03/29 04:18:29;;;;;;;2.97;0.90;;;;;;;5.16;80.16;96865.47;4995499;28;20418;-39
2024/03/29 04:21:03;;;;;;;3.95;1.35;;;;;;;5.14;80.96;96871.47;5016354;28;20049;-40
2024/03/29 04:23:29;;;;;;;1.48;0.80;;;;;;;5.16;80.80;96875.72;5020048;28;20061;-40
2024/03/29 04:25:57;;;;;;;0.80;0.40;;;;;;;5.15;80.34;96867.19;5005923;28;20045;-40
2024/03/29 04:28:24;;;;;;;0.55;0.55;;;;;;;5.14;80.25;96866.34;4989931;28;20099;-39
2024/03/29 04:33:29;;;;;;;4.97;1.02;;;;;;;5.13;80.82;96880.06;5044173;28;20413;-40
2024/03/29 04:35:57;;;;;;;2.90;0.50;;;;;;;5.16;80.27;96870.59;5023184;28;20046;-39
2024/03/29 04:38:23;;;;;;;1.20;0.50;;;;;;;5.16;81.35;96884.25;4998680;28;20056;-38
2024/03/29 04:40:50;;;;;;;1.50;1.40;;;;;;;5.22;80.19;96883.22;5020831;28;20055;-40
2024/03/29 04:43:16;;;;;;;4.80;0.55;;;;;;;5.25;80.69;96886.53;5020360;28;20045;-40
2024/03/29 04:45:44;;;;;;;2.53;1.17;;;;;;;5.24;80.47;96889.16;5021139;28;20053;-40
2024/03/29 04:48:10;;;;;;;1.88;0.65;;;;;;;5.26;80.74;96885.63;5020098;28;20065;-40
2024/03/29 04:50:36;;;;;;;6.07;0.77;;;;;;;5.31;80.77;96885.50;4999994;28;20060;-39
2024/03/29 04:53:02;;;;;;;0.82;0.82;;;;;;;5.34;80.75;96876.84;5023257;28;20050;-40
2024/03/29 04:55:27;;;;;;;5.20;0.52;;;;;;;5.39;81.70;96877.53;5013456;28;20179;-40
2024/03/29 04:57:53;;;;;;;3.97;0.80;;;;;;;5.39;81.38;96883.53;5006469;28;20533;-41
2024/03/29 05:00:19;;;;;;;2.40;0.60;;;;;;;5.40;80.82;96885.19;5023109;28;20053;-39
2024/03/29 05:02:44;;;;;;;2.40;0.50;;;;;;;5.44;80.65;96887.66;5023368;28;20467;-40
2024/03/29 05:05:10;;;;;;;1.02;0.50;;;;;;;5.47;82.39;96892.69;5023110;28;20128;-39
2024/03/29 05:07:36;;;;;;;4.47;0.85;;;;;;;5.50;81.72;96887.44;5021142;28;20460;-38
2024/03/29 05:10:06;;;;;;;1.48;0.60;;;;;;;5.50;82.09;96890.84;5017956;28;20050;-41
2024/03/29 05:12:32;;;;;;;3.97;0.60;;;;;;;5.56;82.08;96889.81;5022673;28;20502;-39
2024/03/29 05:14:58;;;;;;;3.33;0.63;;;;;;;5.61;82.37;96895.63;5003126;28;20053;-40
2024/03/29 05:17:26;;;;;;;2.22;0.50;;;;;;;5.66;82.97;96891.19;5019087;28;20061;-40
2024/03/29 05:19:53;;;;;;;2.25;0.60;;;;;;;5.69;82.13;96897.09;5022296;28;20052;-40
2024/03/29 05:22:19;;;;;;;1.48;0.77;;;;;;;5.66;83.71;96896.31;5004426;28;20498;-41
2024/03/29 05:24:45;;;;;;;2.15;0.60;;;;;;;5.62;84.37;96892.19;5014337;28;20064;-39
2024/03/29 05:27:12;;;;;;;4.60;0.73;;;;;;;5.71;83.36;96892.75;5021739;28;20132;-38
2024/03/29 05:29:38;;;;;;;1.17;0.73;;;;;;;5.71;83.15;96893.59;5006472;28;20069;-40
2024/03/29 05:32:08;;;;;;;3.13;0.52;;;;;;;5.73;84.07;96890.97;5020117;28;20057;-40
2024/03/29 05:34:33;;;;;;;2.15;0.70;;;;;;;5.77;82.00;96889.97;5022275;28;20493;-41
2024/03/29 05:36:59;;;;;;;6.13;1.00;;;;;;;5.75;83.64;96886.63;5010087;28;20097;-40
2024/03/29 05:39:25;;;;;;;3.30;1.17;;;;;;;5.78;83.42;96883.97;5021168;28;20053;-41
2024/03/29 05:41:51;;;;;;;2.72;0.55;;;;;;;5.76;83.63;96896.00;5021990;28;20057;-40
2024/03/29 05:44:17;;;;;;;2.83;1.60;;;;;;;5.80;83.24;96902.72;5012418;28;20053;-40
2024/03/29 05:46:43;;;;;;;1.52;0.65;;;;;;;5.86;83.67;96899.94;4999972;28;20046;-45
2024/03/29 05:49:08;;;;;;;1.10;0.57;;;;;;;5.89;83.53;96907.56;4989440;28;20513;-40
2024/03/29 05:51:34;;;;;;;3.70;0.63;;;;;;;5.89;84.68;96902.41;5006896;28;20052;-46
2024/03/29 05:54:00;;;;;;;2.40;0.40;;;;;;;5.95;83.81;96900.50;5000231;28;20164;-42
2024/03/29 05:56:26;;;;;;;6.70;1.02;;;;;;;5.97;83.61;96904.69;5005068;28;20050;-41
2024/03/29 05:58:51;;;;;;;2.85;0.63;;;;;;;6.03;83.59;96909.66;4995402;28;20049;-39
2024/03/29 06:01:17;;;;;;;3.78;1.23;;;;;;;6.08;84.34;96906.91;5007040;28;20133;-39
2024/03/29 06:03:43;;;;;;;2.60;0.93;;;;;;;6.13;83.14;96905.03;5008907;28;20042;-39
2024/03/29 06:06:17;;;;;;;0.80;0.57;;;;;;;6.17;83.77;96901.47;5008183;28;20116;-39
2024/03/29 06:08:43;;;;;;;2.47;2.28;;;;;;;6.21;84.35;96902.19;5004006;28;20587;-40
2024/03/29 06:11:09;;;;;;;1.23;0.60;;;;;;;6.27;84.17;96907.13;5008962;28;20061;-40
2024/03/29 06:19:08;;;;;;;1.00;0.57;;;;;;;6.37;82.40;96902.47;4975097;28;20581;-40
2024/03/29 06:21:38;;;;;;;1.60;1.23;;;;;;;6.39;84.07;96912.72;5007664;28;20046;-40
2024/03/29 06:24:06;;;;;;;2.20;0.50;;;;;;;6.40;83.99;96911.81;5002183;28;20745;-40
2024/03/29 06:26:31;;;;;;;2.25;0.60;;;;;;;6.41;83.34;96914.31;4983193;28;20054;-40
2024/03/29 06:28:57;;;;;;;0.65;0.65;;;;;;;6.40;83.39;96912.66;5008652;28;20052;-41
2024/03/29 06:31:23;;;;;;;3.40;0.60;;;;;;;6.48;83.32;96914.13;4998643;28;20061;-41
2024/03/29 06:33:48;;;;;;;2.72;1.08;;;;;;;6.51;84.01;96913.97;5006505;28;20048;-39
2024/03/29 06:36:14;;;;;;;3.42;0.60;;;;;;;6.52;82.42;96908.78;4998649;28;20117;-41
2024/03/29 06:38:40;;;;;;;1.17;0.35;;;;;;;6.53;83.62;96907.06;5004228;28;20101;-41
2024/03/29 06:41:05;;;;;;;6.82;0.98;;;;;;;6.60;82.41;96913.66;5005797;28;20817;-40
2024/03/29 06:43:31;;;;;;;0.32;0.30;;;;;;;6.63;82.92;96908.41;5004175;28;20054;-40
2024/03/29 06:45:58;;;;;;;2.35;0.55;;;;;;;6.65;83.09;96911.75;5006755;28;20054;-40
2024/03/29 06:48:24;;;;;;;1.85;0.40;;;;;;;6.69;83.42;96913.31;5001464;28;20054;-40
2024/03/29 06:50:49;;;;;;;1.27;0.40;;;;;;;6.80;82.68;96909.50;5003489;28;20062;-40
2024/03/29 06:53:15;;;;;;;0.73;0.50;;;;;;;6.88;83.36;96907.47;5006912;28;20060;-39
2024/03/29 06:55:41;;;;;;;1.83;0.60;;;;;;;6.98;82.26;96896.81;5006678;28;20207;-40
2024/03/29 06:58:07;;;;;;;1.23;0.90;;;;;;;7.11;82.44;96907.47;5003814;28;20054;-40
2024/03/29 07:00:33;;;;;;;2.25;0.85;;;;;;;7.23;81.66;96912.13;5004579;28;20465;-41
2024/03/29 07:02:58;;;;;;;1.25;0.75;;;;;;;7.29;82.31;96911.03;5007523;28;20457;-40
2024/03/29 07:05:24;;;;;;;0.90;0.52;;;;;;;7.32;81.87;96916.06;5007964;28;20454;-40
2024/03/29 07:07:49;;;;;;;3.47;0.68;;;;;;;7.39;82.13;96909.78;5002480;28;20080;-40
2024/03/29 07:10:15;;;;;;;2.22;0.60;;;;;;;7.45;81.34;96917.25;5003395;28;20077;-39
2024/03/29 07:12:41;;;;;;;7.70;0.43;;;;;;;7.46;80.79;96913.78;5001183;28;20580;-40
2024/03/29 07:15:07;;;;;;;1.38;0.43;;;;;;;7.56;81.25;96914.25;5006966;28;20449;-40
2024/03/29 07:17:32;;;;;;;2.55;0.63;;;;;;;8.26;82.05;96919.94;4998863;28;20053;-41
2024/03/29 07:19:58;;;;;;;6.63;0.75;;;;;;;9.06;80.61;96917.28;5007801;28;20061;-40
2024/03/29 07:22:24;;;;;;;4.07;0.60;;;;;;;9.42;77.57;96910.44;5001165;28;20046;-39
2024/03/29 07:24:49;;;;;;;4.00;0.50;;;;;;;10.02;77.38;96912.63;5001234;28;20042;-41
2024/03/29 07:27:17;;;;;;;5.90;0.68;;;;;;;10.47;76.14;96911.25;5006672;28;20551;-42
2024/03/29 07:29:44;;;;;;;4.15;0.60;;;;;;;10.76;74.07;96907.09;5007014;28;20056;-40
2024/03/29 07:32:09;;;;;;;2.70;0.50;;;;;;;10.33;72.39;96899.03;5001164;28;20415;-39
2024/03/29 07:34:35;;;;;;;1.40;0.45;;;;;;;9.77;72.39;96903.50;5006815;28;20048;-40
2024/03/29 07:37:01;;;;;;;0.60;0.47;;;;;;;9.60;73.72;96906.91;5001753;28;20104;-47
2024/03/29 07:39:27;;;;;;;2.90;1.08;;;;;;;9.82;74.19;96910.19;5006408;28;20564;-50
2024/03/29 07:41:52;;;;;;;4.75;0.60;;;;;;;10.39;74.51;96907.28;5002690;28;20744;-41
2024/03/29 07:44:18;;;;;;;3.45;0.80;;;;;;;10.85;73.35;96923.06;5006434;28;20060;-40
2024/03/29 07:46:46;;;;;;;3.33;0.50;;;;;;;11.40;70.83;96916.59;5006965;28;20058;-41
2024/03/29 07:49:13;;;;;;;6.68;0.70;;;;;;;11.66;70.00;96926.38;5006831;28;20050;-41
2024/03/29 07:51:39;;;;;;;2.33;0.43;;;;;;;11.74;69.16;96928.50;5003177;28;20521;-40
2024/03/29 07:54:04;;;;;;;2.78;0.43;;;;;;;11.47;67.53;96917.06;5000126;28;20046;-39
2024/03/29 07:56:31;;;;;;;2.95;0.80;;;;;;;11.17;68.91;96930.81;5002702;28;20092;-41
2024/03/29 07:58:56;;;;;;;4.00;0.95;;;;;;;10.94;69.04;96925.13;4998603;28;20060;-39
2024/03/29 08:01:23;;;;;;;1.65;0.50;;;;;;;11.03;68.84;96924.66;5006539;28;20396;-41
2024/03/29 08:03:51;;;;;;;3.63;1.13;;;;;;;11.53;69.84;96937.47;5004032;28;20049;-40
2024/03/29 08:06:18;;;;;;;4.13;0.90;;;;;;;11.97;68.64;96945.34;4996121;28;20092;-40
2024/03/29 08:08:45;;;;;;;2.90;0.82;;;;;;;12.04;68.33;96940.63;5003820;28;20045;-41
2024/03/29 08:11:11;;;;;;;6.65;1.15;;;;;;;11.82;68.01;96934.09;5006708;28;20069;-40
2024/03/29 08:13:39;;;;;;;5.88;0.82;;;;;;;12.02;68.32;96945.91;5005836;28;20092;-40
2024/03/29 08:16:05;;;;;;;4.93;1.00;;;;;;;12.41;67.76;96937.63;5004012;28;20057;-40
2024/03/29 08:18:32;;;;;;;2.15;0.80;;;;;;;12.29;67.20;96940.03;4996406;28;20141;-41
2024/03/29 08:20:59;;;;;;;4.32;0.77;;;;;;;12.04;67.37;96941.47;4985106;28;20054;-41
2024/03/29 08:23:25;;;;;;;5.28;1.15;;;;;;;11.81;67.72;96945.38;5001496;28;20057;-40
2024/03/29 08:25:52;;;;;;;2.63;0.80;;;;;;;11.60;68.94;96947.47;5001957;28;20535;-40
2024/03/29 08:28:18;;;;;;;6.72;1.20;;;;;;;11.12;68.81;96943.19;5006082;28;20049;-39
2024/03/29 08:30:44;;;;;;;6.10;1.05;;;;;;;10.91;69.33;96948.63;5006068;28;20069;-39
2024/03/29 08:33:10;;;;;;;4.65;0.93;;;;;;;10.67;70.86;96954.19;5000056;28;20045;-40
2024/03/29 08:35:36;;;;;;;7.53;1.08;;;;;;;10.53;70.74;96952.31;4999947;28;20120;-40
2024/03/29 08:38:02;;;;;;;3.03;0.90;;;;;;;10.41;70.95;96953.78;4991841;28;20046;-40
2024/03/29 08:40:31;;;;;;;4.38;1.15;;;;;;;10.36;71.26;96945.41;4994320;28;20057;-39
2024/03/29 08:42:57;;;;;;;2.72;0.85;;;;;;;10.27;71.38;96942.38;4984490;28;20045;-39
2024/03/29 08:45:22;;;;;;;3.05;0.98;;;;;;;10.07;72.00;96960.69;5003939;28;20039;-41
2024/03/29 08:47:49;;;;;;;2.38;0.90;;;;;;;9.97;72.20;96961.13;5005442;28;20498;-40
2024/03/29 08:50:14;;;;;;;6.10;0.68;;;;;;;9.82;72.47;96961.88;4985787;28;20050;-40
2024/03/29 08:52:40;;;;;;;1.35;0.43;;;;;;;9.77;72.95;96960.38;4998682;28;20502;-40
2024/03/29 08:55:07;;;;;;;4.95;0.60;;;;;;;9.70;73.93;96963.34;5002798;28;20115;-39
2024/03/29 08:57:33;;;;;;;2.63;1.02;;;;;;;9.51;73.85;96964.22;5014026;28;20047;-40
2024/03/29 08:59:58;;;;;;;1.52;0.75;;;;;;;9.49;73.95;96968.66;5017177;28;20526;-39
2024/03/29 09:02:24;;;;;;;1.88;0.70;;;;;;;9.42;74.63;96970.66;5021377;28;20103;-40
2024/03/29 09:04:50;;;;;;;1.77;0.47;;;;;;;9.35;75.20;96964.97;5025356;28;20061;-40
2024/03/29 09:07:15;;;;;;;5.57;0.75;;;;;;;9.30;75.64;96966.94;5023117;28;20045;-39
2024/03/29 09:09:41;;;;;;;6.60;0.82;;;;;;;9.29;75.73;96972.16;5023381;28;20053;-39
2024/03/29 09:12:08;;;;;;;4.95;0.95;;;;;;;9.30;75.76;96966.09;5024898;28;20117;-40
2024/03/29 09:14:34;;;;;;;2.38;0.50;;;;;;;9.16;76.50;96975.31;5000583;28;20058;-40
2024/03/29 09:16:59;;;;;;;4.15;0.45;;;;;;;9.16;76.79;96979.66;5025445;28;20107;-38
2024/03/29 09:19:25;;;;;;;3.05;0.50;;;;;;;9.25;75.99;96974.88;5024784;28;20046;-41
2024/03/29 09:21:51;;;;;;;3.00;0.50;;;;;;;9.29;76.59;96990.25;5026820;28;20132;-40
2024/03/29 09:24:17;;;;;;;1.50;0.47;;;;;;;9.20;77.34;96982.03;5028288;28;20095;-40
2024/03/29 09:26:43;;;;;;;0.82;0.40;;;;;;;9.10;77.82;96988.50;5021084;28;20064;-41
2024/03/29 09:29:10;;;;;;;3.25;0.57;;;;;;;9.06;78.44;96992.16;5029283;28;20059;-39
2024/03/29 09:31:35;;;;;;;2.17;0.30;;;;;;;9.08;78.00;96998.06;5028357;28;20123;-41
2024/03/29 09:34:01;;;;;;;0.65;0.52;;;;;;;9.03;78.08;97000.03;5023095;28;20497;-39
2024/03/29 09:36:27;;;;;;;0.93;0.60;;;;;;;9.16;78.97;96995.97;5028333;28;20110;-41
2024/03/29 09:38:52;;;;;;;2.58;0.52;;;;;;;9.12;80.20;96999.63;5025742;28;20053;-40
2024/03/29 09:41:19;;;;;;;0.43;0.35;;;;;;;9.22;79.77;97011.19;5026571;28;20061;-39
2024/03/29 09:43:47;;;;;;;5.45;0.85;;;;;;;9.28;79.92;97010.06;5009109;28;20538;-40
2024/03/29 09:46:14;;;;;;;1.58;0.57;;;;;;;9.35;79.45;97016.63;5024817;28;20046;-40
2024/03/29 09:48:41;;;;;;;0.50;0.30;;;;;;;9.52;79.35;97010.66;5008573;28;20053;-40
2024/03/29 09:51:07;;;;;;;0.55;0.35;;;;;;;9.86;79.24;97009.97;5021694;28;20049;-41
2024/03/29 09:53:36;;;;;;;1.67;0.68;;;;;;;10.15;77.84;97016.28;5025260;28;20046;-39
2024/03/29 09:56:04;;;;;;;2.40;0.60;;;;;;;10.35;77.64;97018.75;5007726;28;20053;-40
2024/03/29 09:58:31;;;;;;;1.33;0.40;;;;;;;10.92;77.49;97020.19;5009080;28;20045;-41
2024/03/29 10:00:57;;;;;;;2.90;0.40;;;;;;;11.54;76.05;97016.03;5028482;28;20498;-40
2024/03/29 10:03:28;;;;;;;2.72;0.93;;;;;;;11.97;75.11;97023.16;5026634;28;20058;-42
2024/03/29 10:05:57;;;;;;;0.93;0.75;;;;;;;12.34;73.21;97020.22;5028424;28;20444;-40
2024/03/29 10:08:25;;;;;;;4.65;1.20;;;;;;;12.52;72.27;97023.47;5020407;28;20053;-40
2024/03/29 10:10:51;;;;;;;1.40;0.95;;;;;;;12.72;72.31;97030.09;5028177;28;20049;-42
2024/03/29 10:13:17;;;;;;;1.20;0.60;;;;;;;12.68;69.73;97031.22;5027473;28;20053;-40
2024/03/29 10:15:47;;;;;;;3.13;0.70;;;;;;;12.63;70.37;97029.81;5023704;28;20077;-44
2024/03/29 10:18:12;;;;;;;0.82;0.45;;;;;;;12.52;69.84;97033.88;5026593;28;20064;-41
2024/03/29 10:20:38;;;;;;;5.40;0.55;;;;;;;12.48;69.23;97032.38;5028309;28;20049;-41
2024/03/29 10:23:05;;;;;;;1.60;0.75;;;;;;;12.49;68.52;97028.84;5026785;28;20068;-41
2024/03/29 10:25:33;;;;;;;0.80;0.80;;;;;;;12.63;69.45;97038.41;5027774;28;20502;-41
2024/03/29 10:27:59;;;;;;;1.90;0.30;;;;;;;12.77;69.99;97042.78;5028055;28;20053;-41
2024/03/29 10:30:25;;;;;;;2.75;0.50;;;;;;;12.73;68.27;97029.16;5027539;28;20054;-40
2024/03/29 10:32:51;;;;;;;4.90;1.13;;;;;;;12.73;67.92;97030.91;5011744;28;20041;-40
2024/03/29 10:35:17;;;;;;;4.75;0.90;;;;;;;12.99;67.01;97031.09;5008989;28;20058;-41
2024/03/29 10:37:44;;;;;;;1.75;0.50;;;;;;;13.24;67.46;97040.81;5027152;28;20042;-41
2024/03/29 10:40:10;;;;;;;2.67;0.55;;;;;;;13.46;68.38;97038.63;5023650;28;20398;-39
2024/03/29 10:42:38;;;;;;;2.47;0.70;;;;;;;13.55;66.47;97030.31;5024430;28;20545;-40
2024/03/29 10:45:06;;;;;;;3.72;1.58;;;;;;;13.58;64.39;97032.69;5026136;28;20583;-40
2024/03/29 10:47:33;;;;;;;1.95;0.50;;;;;;;13.43;64.83;97034.47;5027859;28;20061;-40
2024/03/29 10:49:59;;;;;;;3.08;0.82;;;;;;;13.49;65.59;97028.06;5026889;28;20084;-39
2024/03/29 10:52:26;;;;;;;5.88;0.60;;;;;;;13.60;64.37;97038.63;5027259;28;20125;-43
2024/03/29 10:54:54;;;;;;;1.35;0.82;;;;;;;13.70;64.79;97040.63;5006645;28;20049;-42
2024/03/29 10:57:25;;;;;;;2.85;0.40;;;;;;;13.67;64.24;97046.03;5026191;28;20049;-40
2024/03/29 11:02:50;;;;;;;1.67;1.02;;;;;;;13.98;64.54;97044.03;5051931;28;20396;-42
2024/03/29 11:05:17;;;;;;;2.47;1.95;;;;;;;14.06;63.26;97046.16;5015102;28;20395;-43
2024/03/29 11:07:45;;;;;;;2.22;0.98;;;;;;;14.18;63.32;97039.34;5021393;28;20041;-40
2024/03/29 11:10:15;;;;;;;1.13;0.88;;;;;;;14.47;62.87;97046.97;5018049;28;20100;-40
2024/03/29 11:13:09;;;;;;;3.30;0.90;;;;;;;14.61;60.35;97046.03;5019886;28;20041;-41
2024/03/29 11:15:38;;;;;;;1.70;0.63;;;;;;;14.60;60.23;97047.81;5037128;28;20068;-43
2024/03/29 11:18:05;;;;;;;4.55;0.70;;;;;;;14.65;60.29;97048.34;5016565;28;20042;-43
2024/03/29 11:20:36;;;;;;;3.63;0.50;;;;;;;14.74;59.64;97056.44;5022671;28;20046;-40
2024/03/29 11:23:09;;;;;;;0.98;0.70;;;;;;;14.60;59.14;97055.63;5020759;28;20080;-42
2024/03/29 11:25:57;;;;;;;2.25;0.55;;;;;;;14.44;58.92;97065.38;5017185;28;20049;-41
2024/03/29 11:31:05;;;;;;;2.17;0.98;;;;;;;13.96;58.72;97082.34;5073397;27;20682;-41
2024/03/29 11:33:33;;;;;;;2.20;2.10;;;;;;;13.99;60.65;97082.16;5070842;28;20045;-42
2024/03/29 11:36:05;;;;;;;3.67;1.35;;;;;;;14.00;61.51;97089.03;5068927;28;20048;-41
2024/03/29 11:38:33;;;;;;;3.35;2.28;;;;;;;13.91;61.11;97081.84;5078480;28;20109;-42
2024/03/29 11:41:11;;;;;;;3.47;2.13;;;;;;;13.74;60.28;97081.13;5089917;28;20062;-41
2024/03/29 11:43:37;;;;;;;6.00;2.60;;;;;;;13.84;61.92;97071.81;5080359;28;20056;-41
2024/03/29 11:46:06;;;;;;;3.65;1.83;;;;;;;13.97;61.35;97084.88;5069106;28;20045;-43
2024/03/29 11:48:32;;;;;;;1.83;1.73;;;;;;;14.17;61.98;97084.50;5061303;28;20485;-42
2024/03/29 11:50:59;;;;;;;4.40;1.75;;;;;;;14.33;61.96;97079.97;5066978;28;20071;-41
2024/03/29 11:53:25;;;;;;;4.20;1.40;;;;;;;14.59;61.97;97085.19;5052196;28;20052;-41
2024/03/29 11:55:53;;;;;;;4.03;2.00;;;;;;;14.55;58.96;97078.53;5099925;28;20067;-40